Time;durP1;ratioP1;P1;durP2;ratioP2;P2;SDS_P1;SDS_P2;PMS_P1;PMS_P2;Temp;Humidity;BMP_temperature;BMP_pressure;BME280_temperature;BME280_humidity;BME280_pressure;Samples;Min_cycle;Max_cycle;Signal;HPM_P1;HPM_P2
2022/09/18 00:01:27;;;;;;;;;;;12.00;99.90;;;;;;5077250;28;20412;-86
2022/09/18 00:03:54;;;;;;;;;;;12.10;99.90;;;;;;5079302;28;19932;-85
2022/09/18 00:06:22;;;;;;;;;;;12.10;99.90;;;;;;5075582;28;19928;-85
2022/09/18 00:08:51;;;;;;;;;;;12.10;99.90;;;;;;5086173;28;19932;-85
2022/09/18 00:11:18;;;;;;;;;;;12.10;99.90;;;;;;5090205;28;20019;-86
2022/09/18 00:13:45;;;;;;;;;;;12.10;99.90;;;;;;5088199;28;19967;-84
2022/09/18 00:16:18;;;;;;;;;;;12.10;99.90;;;;;;5057348;28;19931;-85
2022/09/18 00:18:45;;;;;;;;;;;12.10;99.90;;;;;;5081574;28;19932;-85
2022/09/18 00:21:12;;;;;;;;;;;12.20;99.90;;;;;;5058632;28;19928;-86
2022/09/18 00:23:39;;;;;;;;;;;12.20;99.90;;;;;;5078204;28;19938;-85
2022/09/18 00:26:07;;;;;;;;;;;12.10;99.90;;;;;;5079493;28;20027;-85
2022/09/18 00:28:33;;;;;;;;;;;12.10;99.90;;;;;;5083519;28;19947;-85
2022/09/18 00:31:05;;;;;;;;;;;12.10;99.90;;;;;;5081150;28;19972;-85
2022/09/18 00:33:33;;;;;;;;;;;11.90;99.90;;;;;;5080580;28;20385;-85
2022/09/18 00:36:01;;;;;;;;;;;11.90;99.90;;;;;;5072894;28;19932;-85
2022/09/18 00:38:29;;;;;;;;;;;11.90;99.90;;;;;;5078988;28;19928;-85
2022/09/18 00:40:58;;;;;;;;;;;11.90;99.90;;;;;;5063789;28;19932;-84
2022/09/18 00:43:27;;;;;;;;;;;11.90;99.90;;;;;;5061948;28;19998;-86
2022/09/18 00:45:55;;;;;;;;;;;11.80;99.90;;;;;;5069041;28;19950;-85
2022/09/18 00:48:24;;;;;;;;;;;11.90;99.90;;;;;;5084628;28;19924;-85
2022/09/18 00:50:53;;;;;;;;;;;11.90;99.90;;;;;;5077310;28;19924;-86
2022/09/18 00:53:20;;;;;;;;;;;11.90;99.90;;;;;;5066448;28;19931;-84
2022/09/18 00:55:47;;;;;;;;;;;11.90;99.90;;;;;;5066675;28;19932;-85
2022/09/18 00:58:14;;;;;;;;;;;11.90;99.90;;;;;;5073780;28;19932;-84
2022/09/18 01:00:41;;;;;;;;;;;11.90;99.90;;;;;;5068090;28;19954;-84
2022/09/18 01:03:07;;;;;;;;;;;11.90;99.90;;;;;;5084869;28;19932;-84
2022/09/18 01:05:42;;;;;;;;;;;11.90;99.90;;;;;;5099611;28;19928;-84
2022/09/18 01:08:18;;;;;;;;;;;11.90;99.90;;;;;;5079891;28;19947;-84
2022/09/18 01:10:50;;;;;;;;;;;12.00;99.90;;;;;;5064009;28;20496;-84
2022/09/18 01:13:23;;;;;;;;;;;11.90;99.90;;;;;;5068955;28;20317;-84
2022/09/18 01:15:51;;;;;;;;;;;12.00;99.90;;;;;;5067260;28;19924;-85
2022/09/18 01:18:20;;;;;;;;;;;12.00;99.90;;;;;;5064101;28;20011;-84
2022/09/18 01:21:05;;;;;;;;;;;12.00;99.90;;;;;;5085042;28;19928;-84
2022/09/18 01:23:45;;;;;;;;;;;12.00;99.90;;;;;;5066184;28;19934;-85
2022/09/18 01:26:19;;;;;;;;;;;12.00;99.90;;;;;;5069627;28;19935;-84
2022/09/18 01:28:49;;;;;;;;;;;12.00;99.90;;;;;;5060027;28;19932;-84
2022/09/18 01:31:18;;;;;;;;;;;12.10;99.90;;;;;;5082157;28;19928;-85
2022/09/18 01:33:48;;;;;;;;;;;12.00;99.90;;;;;;5065017;28;20611;-84
2022/09/18 01:36:15;;;;;;;;;;;12.00;99.90;;;;;;5064928;28;20592;-84
2022/09/18 01:38:45;;;;;;;;;;;12.00;99.90;;;;;;5085250;28;19928;-84
2022/09/18 01:41:12;;;;;;;;;;;12.00;99.90;;;;;;5059538;28;19928;-85
2022/09/18 01:43:40;;;;;;;;;;;12.00;99.90;;;;;;5062376;28;19964;-84
2022/09/18 01:46:09;;;;;;;;;;;12.00;99.90;;;;;;5064846;28;19938;-84
2022/09/18 01:48:39;;;;;;;;;;;12.00;99.90;;;;;;5072183;28;19936;-84
2022/09/18 01:51:09;;;;;;;;;;;12.00;99.90;;;;;;5064213;28;19928;-83
2022/09/18 01:53:39;;;;;;;;;;;12.00;99.90;;;;;;5067428;28;19924;-84
2022/09/18 01:56:10;;;;;;;;;;;12.00;99.90;;;;;;5064234;28;20010;-84
2022/09/18 01:58:37;;;;;;;;;;;12.00;99.90;;;;;;5076411;28;19928;-84
2022/09/18 02:01:11;;;;;;;;;;;12.00;99.90;;;;;;5084507;28;19932;-84
2022/09/18 02:03:41;;;;;;;;;;;11.90;99.90;;;;;;5074424;28;19939;-84
2022/09/18 02:06:09;;;;;;;;;;;11.90;99.90;;;;;;5065401;28;19947;-84
2022/09/18 02:08:38;;;;;;;;;;;12.00;99.90;;;;;;5078161;28;19955;-84
2022/09/18 02:11:06;;;;;;;;;;;11.90;99.90;;;;;;5075302;28;19932;-84
2022/09/18 02:13:36;;;;;;;;;;;12.00;99.90;;;;;;5079302;28;19935;-85
2022/09/18 02:16:04;;;;;;;;;;;11.90;99.90;;;;;;5066989;28;19929;-84
2022/09/18 02:18:35;;;;;;;;;;;11.90;99.90;;;;;;5067020;28;19932;-85
2022/09/18 02:21:07;;;;;;;;;;;11.90;99.90;;;;;;5089278;28;19951;-86
2022/09/18 02:23:37;;;;;;;;;;;12.00;99.90;;;;;;5065614;28;19928;-83
2022/09/18 02:26:06;;;;;;;;;;;12.00;99.90;;;;;;5071445;28;19936;-84
2022/09/18 02:28:34;;;;;;;;;;;12.00;99.90;;;;;;5079824;28;20074;-85
2022/09/18 02:31:01;;;;;;;;;;;12.00;99.90;;;;;;5074589;28;19924;-85
2022/09/18 02:33:28;;;;;;;;;;;12.00;99.90;;;;;;5060967;28;19970;-85
2022/09/18 02:36:04;;;;;;;;;;;11.90;99.90;;;;;;5066352;28;20420;-83
2022/09/18 02:38:40;;;;;;;;;;;11.90;99.90;;;;;;5073898;28;19928;-84
2022/09/18 02:41:10;;;;;;;;;;;11.90;99.90;;;;;;5059649;28;20015;-83
2022/09/18 02:43:41;;;;;;;;;;;11.90;99.90;;;;;;5062705;28;19924;-84
2022/09/18 02:46:12;;;;;;;;;;;12.00;99.90;;;;;;5075526;28;19931;-84
2022/09/18 02:48:53;;;;;;;;;;;12.00;99.90;;;;;;5074536;28;20680;-84
2022/09/18 02:51:27;;;;;;;;;;;12.00;99.90;;;;;;5073600;28;19933;-83
2022/09/18 02:53:57;;;;;;;;;;;12.00;99.90;;;;;;5063173;28;19924;-84
2022/09/18 02:56:27;;;;;;;;;;;11.90;99.90;;;;;;5065690;28;19981;-83
2022/09/18 02:58:56;;;;;;;;;;;11.90;99.90;;;;;;5064429;28;19928;-84
2022/09/18 03:01:25;;;;;;;;;;;11.90;99.90;;;;;;5075773;28;20329;-84
2022/09/18 03:03:52;;;;;;;;;;;11.90;99.90;;;;;;5081263;28;19955;-85
2022/09/18 03:06:25;;;;;;;;;;;11.90;99.90;;;;;;5067385;28;19950;-84
2022/09/18 03:08:52;;;;;;;;;;;11.90;99.90;;;;;;5063669;28;19932;-84
2022/09/18 03:11:19;;;;;;;;;;;11.90;99.90;;;;;;5068484;28;19932;-84
2022/09/18 03:13:45;;;;;;;;;;;12.00;99.90;;;;;;5071209;28;19978;-84
2022/09/18 03:16:12;;;;;;;;;;;11.90;99.90;;;;;;5074544;28;19942;-84
2022/09/18 03:18:39;;;;;;;;;;;11.90;99.90;;;;;;5077494;28;19928;-84
2022/09/18 03:21:06;;;;;;;;;;;11.90;99.90;;;;;;5065830;28;20021;-84
2022/09/18 03:23:34;;;;;;;;;;;12.00;99.90;;;;;;5063594;28;20432;-84
2022/09/18 03:26:13;;;;;;;;;;;12.00;99.90;;;;;;5063446;28;19928;-84
2022/09/18 03:28:40;;;;;;;;;;;11.90;99.90;;;;;;5062061;28;20029;-85
2022/09/18 03:31:08;;;;;;;;;;;12.00;99.90;;;;;;5074199;28;20692;-84
2022/09/18 03:33:35;;;;;;;;;;;11.90;99.90;;;;;;5063250;28;19929;-84
2022/09/18 03:36:02;;;;;;;;;;;11.90;99.90;;;;;;5066193;28;20022;-84
2022/09/18 03:38:28;;;;;;;;;;;11.90;99.90;;;;;;5063864;28;19961;-84
2022/09/18 03:40:58;;;;;;;;;;;12.00;99.90;;;;;;5073798;28;19985;-84
2022/09/18 03:43:25;;;;;;;;;;;11.90;99.90;;;;;;5084170;28;19956;-84
2022/09/18 03:45:52;;;;;;;;;;;11.90;99.90;;;;;;5067076;28;20635;-84
2022/09/18 03:48:19;;;;;;;;;;;11.90;99.90;;;;;;5084134;28;19939;-84
2022/09/18 03:50:47;;;;;;;;;;;11.90;99.90;;;;;;5084211;28;19932;-84
2022/09/18 03:53:14;;;;;;;;;;;11.90;99.90;;;;;;5081115;28;19940;-83
2022/09/18 03:55:48;;;;;;;;;;;11.90;99.90;;;;;;5063324;28;19938;-84
2022/09/18 03:58:35;;;;;;;;;;;11.90;99.90;;;;;;5091312;28;19935;-84
2022/09/18 04:01:19;;;;;;;;;;;11.90;99.90;;;;;;5078673;28;19944;-84
2022/09/18 04:04:15;;;;;;;;;;;11.90;99.90;;;;;;5089536;28;19939;-84
2022/09/18 04:07:01;;;;;;;;;;;11.80;99.90;;;;;;5091812;28;19977;-83
2022/09/18 04:09:39;;;;;;;;;;;11.80;99.90;;;;;;5089545;28;19939;-84
2022/09/18 04:12:06;;;;;;;;;;;11.90;99.90;;;;;;5084889;28;19928;-84
2022/09/18 04:14:34;;;;;;;;;;;11.90;99.90;;;;;;5061470;28;19939;-85
2022/09/18 04:17:01;;;;;;;;;;;11.80;99.90;;;;;;5088853;28;19963;-84
2022/09/18 04:19:29;;;;;;;;;;;11.80;99.90;;;;;;5071230;28;19928;-84
2022/09/18 04:21:57;;;;;;;;;;;11.80;99.90;;;;;;5074070;28;20280;-84
2022/09/18 04:24:24;;;;;;;;;;;11.90;99.90;;;;;;5092113;28;19939;-85
2022/09/18 04:26:51;;;;;;;;;;;11.80;99.90;;;;;;5067787;28;20018;-84
2022/09/18 04:29:20;;;;;;;;;;;11.80;99.90;;;;;;5090997;28;19932;-84
2022/09/18 04:31:51;;;;;;;;;;;11.80;99.90;;;;;;5075089;28;19956;-84
2022/09/18 04:34:20;;;;;;;;;;;11.80;99.90;;;;;;5059449;28;20027;-84
2022/09/18 04:36:47;;;;;;;;;;;11.80;99.90;;;;;;5084504;28;19964;-84
2022/09/18 04:39:14;;;;;;;;;;;11.80;99.90;;;;;;5081949;28;19932;-84
2022/09/18 04:41:44;;;;;;;;;;;11.80;99.90;;;;;;5088989;28;19921;-86
2022/09/18 04:44:11;;;;;;;;;;;11.80;99.90;;;;;;5081039;28;19995;-85
2022/09/18 04:46:38;;;;;;;;;;;11.80;99.90;;;;;;5092686;28;19935;-84
2022/09/18 04:49:06;;;;;;;;;;;11.80;99.90;;;;;;5087991;28;19928;-84
2022/09/18 04:51:33;;;;;;;;;;;11.80;99.90;;;;;;5070613;28;19938;-84
2022/09/18 04:54:00;;;;;;;;;;;11.80;99.90;;;;;;5087373;28;20420;-84
2022/09/18 04:56:26;;;;;;;;;;;11.80;99.90;;;;;;5086969;28;19928;-84
2022/09/18 04:58:53;;;;;;;;;;;11.80;99.90;;;;;;5080052;28;20325;-85
2022/09/18 05:01:20;;;;;;;;;;;11.80;99.90;;;;;;5082788;28;19976;-84
2022/09/18 05:03:47;;;;;;;;;;;11.90;99.90;;;;;;5067205;28;19933;-84
2022/09/18 05:06:31;;;;;;;;;;;11.90;99.90;;;;;;5070426;28;19925;-84
2022/09/18 05:09:00;;;;;;;;;;;11.90;99.90;;;;;;5073666;28;19928;-84
2022/09/18 05:11:27;;;;;;;;;;;11.90;99.90;;;;;;5080838;28;19939;-84
2022/09/18 05:13:55;;;;;;;;;;;11.90;99.90;;;;;;5083232;28;19989;-83
2022/09/18 05:16:23;;;;;;;;;;;11.90;99.90;;;;;;5070210;28;20436;-83
2022/09/18 05:19:07;;;;;;;;;;;11.90;99.90;;;;;;5060701;28;20012;-83
2022/09/18 05:21:36;;;;;;;;;;;12.00;99.90;;;;;;5070473;28;19935;-84
2022/09/18 05:24:05;;;;;;;;;;;12.00;99.90;;;;;;5064195;28;19927;-87
2022/09/18 05:26:32;;;;;;;;;;;12.00;99.90;;;;;;5068526;28;21373;-85
2022/09/18 05:28:59;;;;;;;;;;;12.10;99.90;;;;;;5075894;28;19966;-84
2022/09/18 05:31:26;;;;;;;;;;;12.10;99.90;;;;;;5082830;28;19951;-84
2022/09/18 05:33:53;;;;;;;;;;;12.10;99.90;;;;;;5062806;28;19978;-84
2022/09/18 05:36:19;;;;;;;;;;;12.10;99.90;;;;;;5071323;28;19939;-85
2022/09/18 05:38:52;;;;;;;;;;;12.10;99.90;;;;;;5069555;28;20283;-83
2022/09/18 05:41:19;;;;;;;;;;;12.00;99.90;;;;;;5060832;28;19929;-84
2022/09/18 05:43:46;;;;;;;;;;;12.00;99.90;;;;;;5076613;28;19989;-82
2022/09/18 05:46:13;;;;;;;;;;;12.00;99.90;;;;;;5074922;28;21442;-82
2022/09/18 05:48:48;;;;;;;;;;;12.00;99.90;;;;;;5060525;28;19982;-85
2022/09/18 05:51:15;;;;;;;;;;;12.00;99.90;;;;;;5058421;28;19929;-83
2022/09/18 05:53:47;;;;;;;;;;;12.00;99.90;;;;;;5059929;28;19990;-83
2022/09/18 05:56:26;;;;;;;;;;;12.00;99.90;;;;;;5060060;28;20492;-84
2022/09/18 05:58:54;;;;;;;;;;;12.00;99.90;;;;;;5075888;28;20311;-83
2022/09/18 06:01:21;;;;;;;;;;;12.00;99.90;;;;;;5058965;28;19964;-84
2022/09/18 06:04:09;;;;;;;;;;;12.00;99.90;;;;;;5055360;28;20018;-84
2022/09/18 06:06:55;;;;;;;;;;;12.00;99.90;;;;;;5065087;28;19928;-84
2022/09/18 06:09:23;;;;;;;;;;;12.00;99.90;;;;;;5059050;28;20323;-83
2022/09/18 06:11:51;;;;;;;;;;;12.00;99.90;;;;;;5076056;28;19935;-83
2022/09/18 06:14:18;;;;;;;;;;;12.10;99.90;;;;;;5047680;28;19935;-84
2022/09/18 06:16:46;;;;;;;;;;;12.20;99.90;;;;;;5045682;28;20390;-84
2022/09/18 06:19:13;;;;;;;;;;;12.20;99.90;;;;;;5072587;28;19925;-84
2022/09/18 06:21:42;;;;;;;;;;;12.20;99.90;;;;;;5054525;28;20382;-84
2022/09/18 06:24:12;;;;;;;;;;;12.30;99.90;;;;;;5072904;28;19946;-85
2022/09/18 06:26:48;;;;;;;;;;;12.30;99.90;;;;;;5056013;28;20363;-84
2022/09/18 06:29:16;;;;;;;;;;;12.30;99.90;;;;;;5072324;28;19945;-85
2022/09/18 06:31:50;;;;;;;;;;;12.30;99.90;;;;;;5054672;28;20030;-84
2022/09/18 06:34:25;;;;;;;;;;;12.30;99.90;;;;;;5052248;28;19935;-84
2022/09/18 06:36:56;;;;;;;;;;;12.30;99.90;;;;;;5053770;28;19955;-84
2022/09/18 06:39:43;;;;;;;;;;;12.30;99.90;;;;;;5028799;28;19974;-86
2022/09/18 06:42:18;;;;;;;;;;;12.30;99.90;;;;;;5058010;28;19948;-85
2022/09/18 06:45:03;;;;;;;;;;;12.30;99.90;;;;;;5044948;28;19929;-85
2022/09/18 06:47:30;;;;;;;;;;;12.30;99.90;;;;;;5038196;28;19932;-85
2022/09/18 06:49:59;;;;;;;;;;;12.30;99.90;;;;;;5055752;28;20444;-85
2022/09/18 06:52:27;;;;;;;;;;;12.40;99.90;;;;;;5056648;28;19936;-84
2022/09/18 06:54:56;;;;;;;;;;;12.40;99.90;;;;;;5073485;28;19928;-84
2022/09/18 06:57:33;;;;;;;;;;;12.40;99.90;;;;;;5042939;28;19990;-84
2022/09/18 06:59:59;;;;;;;;;;;12.40;99.90;;;;;;5036622;28;20016;-84
2022/09/18 07:02:29;;;;;;;;;;;12.40;99.90;;;;;;5037096;28;19933;-85
2022/09/18 07:05:19;;;;;;;;;;;12.50;99.90;;;;;;5040165;28;20026;-84
2022/09/18 07:07:46;;;;;;;;;;;12.60;99.90;;;;;;5055974;28;19928;-85
2022/09/18 07:10:13;;;;;;;;;;;12.80;99.90;;;;;;5075349;28;19959;-84
2022/09/18 07:12:47;;;;;;;;;;;12.60;99.90;;;;;;5047723;28;19979;-83
2022/09/18 07:15:14;;;;;;;;;;;12.70;99.90;;;;;;5039700;28;19929;-85
2022/09/18 07:17:44;;;;;;;;;;;12.70;99.90;;;;;;5059375;28;19928;-83
2022/09/18 07:20:14;;;;;;;;;;;12.70;99.90;;;;;;5052817;28;20011;-85
2022/09/18 07:22:43;;;;;;;;;;;12.80;99.90;;;;;;5059009;28;19960;-83
2022/09/18 07:25:10;;;;;;;;;;;12.80;99.90;;;;;;5064245;28;19935;-86
2022/09/18 07:27:37;;;;;;;;;;;12.90;99.90;;;;;;5068086;28;20456;-83
2022/09/18 07:30:05;;;;;;;;;;;13.00;99.90;;;;;;5059046;28;19928;-84
2022/09/18 07:32:34;;;;;;;;;;;13.10;99.90;;;;;;5051129;28;20049;-86
2022/09/18 07:35:03;;;;;;;;;;;13.20;99.90;;;;;;5042894;28;19924;-86
2022/09/18 07:37:32;;;;;;;;;;;13.40;99.90;;;;;;5068516;28;20020;-83
2022/09/18 07:40:19;;;;;;;;;;;13.60;99.90;;;;;;5050899;28;19935;-83
2022/09/18 07:43:08;;;;;;;;;;;13.80;99.90;;;;;;5066085;28;19931;-83
2022/09/18 07:45:37;;;;;;;;;;;14.00;99.90;;;;;;5049530;28;19931;-83
2022/09/18 07:48:10;;;;;;;;;;;14.30;99.90;;;;;;5049981;28;19987;-83
2022/09/18 07:50:48;;;;;;;;;;;14.30;99.90;;;;;;5065382;28;20362;-85
2022/09/18 07:53:17;;;;;;;;;;;14.30;99.90;;;;;;5049755;28;19924;-84
2022/09/18 07:55:52;;;;;;;;;;;14.20;99.90;;;;;;5064625;28;19928;-83
2022/09/18 07:58:22;;;;;;;;;;;14.20;99.90;;;;;;5062967;28;19963;-85
2022/09/18 08:01:18;;;;;;;;;;;14.10;99.90;;;;;;5083590;28;19920;-85
2022/09/18 08:03:55;;;;;;;;;;;14.00;99.90;;;;;;5073342;28;20879;-84
2022/09/18 08:06:49;;;;;;;;;;;13.90;99.90;;;;;;5071562;28;19959;-84
2022/09/18 08:09:34;;;;;;;;;;;13.90;99.90;;;;;;5052570;28;20368;-84
2022/09/18 08:12:22;;;;;;;;;;;14.00;99.90;;;;;;5068880;28;19934;-83
2022/09/18 08:15:16;;;;;;;;;;;14.20;99.90;;;;;;5063771;28;19936;-84
2022/09/18 08:18:04;;;;;;;;;;;14.20;99.90;;;;;;5069282;28;20006;-83
2022/09/18 08:20:58;;;;;;;;;;;14.30;99.90;;;;;;5070061;28;19929;-84
2022/09/18 08:23:46;;;;;;;;;;;14.10;99.90;;;;;;5067175;28;19971;-83
2022/09/18 08:26:18;;;;;;;;;;;14.00;99.90;;;;;;5073347;28;20016;-83
2022/09/18 08:28:47;;;;;;;;;;;14.10;99.90;;;;;;5078202;28;20019;-83
2022/09/18 08:31:24;;;;;;;;;;;14.10;99.90;;;;;;5054466;28;19924;-82
2022/09/18 08:33:56;;;;;;;;;;;14.20;99.90;;;;;;5065133;28;19929;-84
2022/09/18 08:36:22;;;;;;;;;;;14.20;99.90;;;;;;5055120;28;19928;-84
2022/09/18 08:39:10;;;;;;;;;;;14.30;99.90;;;;;;5056798;28;20004;-83
2022/09/18 08:42:04;;;;;;;;;;;14.40;99.90;;;;;;5063202;28;19935;-83
2022/09/18 08:44:39;;;;;;;;;;;14.50;99.90;;;;;;5055808;28;20529;-85
2022/09/18 08:47:09;;;;;;;;;;;14.60;99.90;;;;;;5050359;28;20022;-85
2022/09/18 08:49:37;;;;;;;;;;;14.70;99.90;;;;;;5059072;28;19929;-85
2022/09/18 08:52:12;;;;;;;;;;;14.90;99.90;;;;;;5046560;28;19964;-85
2022/09/18 08:54:51;;;;;;;;;;;15.10;99.90;;;;;;5053425;28;20010;-85
2022/09/18 08:57:32;;;;;;;;;;;15.20;99.90;;;;;;5034266;28;19932;-84
2022/09/18 09:00:09;;;;;;;;;;;15.20;99.90;;;;;;5053529;28;19936;-84
2022/09/18 09:02:38;;;;;;;;;;;15.30;99.90;;;;;;5053470;28;19931;-84
2022/09/18 09:05:08;;;;;;;;;;;15.30;99.90;;;;;;5039048;28;19928;-83
2022/09/18 09:07:45;;;;;;;;;;;15.30;99.90;;;;;;5059046;28;19931;-85
2022/09/18 09:10:19;;;;;;;;;;;15.40;99.90;;;;;;5059231;28;19928;-85
2022/09/18 09:12:53;;;;;;;;;;;15.40;99.90;;;;;;5066495;28;19928;-84
2022/09/18 09:15:25;;;;;;;;;;;15.40;99.90;;;;;;5059709;28;19951;-84
2022/09/18 09:17:55;;;;;;;;;;;;;;;;;;5063307;28;19925;-84
2022/09/18 09:20:24;;;;;;;;;;;15.70;99.90;;;;;;5072245;28;19924;-85
2022/09/18 09:23:00;;;;;;;;;;;16.00;99.90;;;;;;5059831;28;20463;-85
2022/09/18 09:25:33;;;;;;;;;;;16.20;99.90;;;;;;5066239;28;20062;-85
2022/09/18 09:28:15;;;;;;;;;;;16.50;99.90;;;;;;5046304;28;19959;-84
2022/09/18 09:31:09;;;;;;;;;;;16.40;99.90;;;;;;5076353;28;20026;-84
2022/09/18 09:37:09;;;;;;;;;;;16.60;99.90;;;;;;5068973;28;20382;-89
2022/09/18 09:39:42;;;;;;;;;;;16.20;99.90;;;;;;5067481;28;20055;-84
2022/09/18 09:42:39;;;;;;;;;;;15.90;99.90;;;;;;5061919;28;20024;-84
2022/09/18 09:48:45;;;;;;;;;;;15.40;99.90;;;;;;5056312;22;20273;-80
2022/09/18 09:51:17;;;;;;;;;;;15.50;99.90;;;;;;5080865;28;19924;-79
2022/09/18 09:53:46;;;;;;;;;;;15.70;99.90;;;;;;5060994;28;19952;-80
2022/09/18 09:56:22;;;;;;;;;;;16.10;99.90;;;;;;5051310;28;20011;-79
2022/09/18 09:59:06;;;;;;;;;;;16.40;99.90;;;;;;5060388;28;19932;-79
2022/09/18 10:01:40;;;;;;;;;;;16.50;99.90;;;;;;5072919;28;19978;-79
2022/09/18 10:04:18;;;;;;;;;;;16.60;99.90;;;;;;5059990;28;19954;-80
2022/09/18 10:06:49;;;;;;;;;;;16.70;99.90;;;;;;5052216;28;19935;-80
2022/09/18 10:09:19;;;;;;;;;;;16.80;99.90;;;;;;5062100;28;19936;-80
2022/09/18 10:11:51;;;;;;;;;;;16.90;99.90;;;;;;5062578;28;19939;-80
2022/09/18 10:14:22;;;;;;;;;;;17.00;99.90;;;;;;5055253;28;19972;-81
2022/09/18 10:16:50;;;;;;;;;;;17.00;99.90;;;;;;5048862;28;19938;-80
2022/09/18 10:19:21;;;;;;;;;;;17.00;99.90;;;;;;5062929;28;19946;-81
2022/09/18 10:21:49;;;;;;;;;;;16.90;99.90;;;;;;5050738;28;20448;-81
2022/09/18 10:24:22;;;;;;;;;;;16.90;99.90;;;;;;5044774;28;20388;-80
2022/09/18 10:26:53;;;;;;;;;;;16.90;99.90;;;;;;5047497;28;19924;-81
2022/09/18 10:29:20;;;;;;;;;;;16.80;99.90;;;;;;5059283;28;20224;-80
2022/09/18 10:31:54;;;;;;;;;;;16.60;99.90;;;;;;5057928;28;20616;-80
2022/09/18 10:34:34;;;;;;;;;;;16.50;99.90;;;;;;5048185;28;20031;-81
2022/09/18 10:37:01;;;;;;;;;;;16.30;99.90;;;;;;5048456;28;19932;-81
2022/09/18 10:39:29;;;;;;;;;;;16.30;99.90;;;;;;5046479;28;19932;-81
2022/09/18 10:41:58;;;;;;;;;;;16.20;99.90;;;;;;5049931;28;19925;-81
2022/09/18 10:44:26;;;;;;;;;;;16.00;99.90;;;;;;5055281;28;19951;-80
2022/09/18 10:47:01;;;;;;;;;;;15.70;99.90;;;;;;5055826;28;19924;-80
2022/09/18 10:49:31;;;;;;;;;;;15.70;99.90;;;;;;5055260;28;19940;-80
2022/09/18 10:52:23;;;;;;;;;;;15.50;99.90;;;;;;5054649;28;19978;-80
2022/09/18 10:55:11;;;;;;;;;;;15.30;99.90;;;;;;5049683;28;19940;-79
2022/09/18 10:57:43;;;;;;;;;;;15.20;99.90;;;;;;5045559;28;20354;-80
2022/09/18 11:00:26;;;;;;;;;;;15.00;99.90;;;;;;5061176;28;20023;-79
2022/09/18 11:02:59;;;;;;;;;;;14.80;99.90;;;;;;5045071;28;19960;-80
2022/09/18 11:05:31;;;;;;;;;;;14.70;99.90;;;;;;5044719;28;19932;-80
2022/09/18 11:08:05;;;;;;;;;;;14.70;99.90;;;;;;5051499;28;20276;-80
2022/09/18 11:10:35;;;;;;;;;;;14.80;99.90;;;;;;5045235;28;20995;-80
2022/09/18 11:13:03;;;;;;;;;;;14.90;99.90;;;;;;5044564;28;19935;-81
2022/09/18 11:15:48;;;;;;;;;;;15.00;99.90;;;;;;5056663;28;19936;-80
2022/09/18 11:18:16;;;;;;;;;;;15.00;99.90;;;;;;5040475;28;19931;-80
2022/09/18 11:20:44;;;;;;;;;;;15.00;99.90;;;;;;5054812;28;20343;-80
2022/09/18 11:23:25;;;;;;;;;;;14.90;99.90;;;;;;5045630;28;20015;-79
2022/09/18 11:26:10;;;;;;;;;;;14.80;99.90;;;;;;5045102;28;19933;-79
2022/09/18 11:28:37;;;;;;;;;;;14.80;99.90;;;;;;5044572;28;19967;-80
2022/09/18 11:31:11;;;;;;;;;;;14.80;99.90;;;;;;5042660;28;19929;-79
2022/09/18 11:33:42;;;;;;;;;;;14.90;99.90;;;;;;5053099;28;20422;-79
2022/09/18 11:36:10;;;;;;;;;;;15.00;99.90;;;;;;5056445;28;20382;-81
2022/09/18 11:38:41;;;;;;;;;;;15.10;99.90;;;;;;5053205;28;19928;-81
2022/09/18 11:41:10;;;;;;;;;;;14.80;99.90;;;;;;5037633;28;19932;-80
2022/09/18 11:43:43;;;;;;;;;;;15.00;99.90;;;;;;5043408;28;20373;-80
2022/09/18 11:46:15;;;;;;;;;;;14.80;99.90;;;;;;5042571;28;20043;-80
2022/09/18 11:48:45;;;;;;;;;;;14.80;99.90;;;;;;5042732;28;20522;-80
2022/09/18 11:51:15;;;;;;;;;;;14.90;99.90;;;;;;5049564;28;19924;-80
2022/09/18 11:53:46;;;;;;;;;;;15.00;99.90;;;;;;5059160;28;19940;-80
2022/09/18 11:56:14;;;;;;;;;;;15.00;99.90;;;;;;5047846;28;20039;-80
2022/09/18 11:58:43;;;;;;;;;;;15.10;99.90;;;;;;5048147;28;19933;-79
2022/09/18 12:01:14;;;;;;;;;;;15.10;99.90;;;;;;5063603;28;20383;-80
2022/09/18 12:03:44;;;;;;;;;;;15.10;99.90;;;;;;5050992;28;19946;-80
2022/09/18 12:06:17;;;;;;;;;;;15.10;99.90;;;;;;5048740;28;19925;-80
2022/09/18 12:08:50;;;;;;;;;;;15.00;99.90;;;;;;5051377;28;20006;-80
2022/09/18 12:11:22;;;;;;;;;;;15.00;99.90;;;;;;5049712;28;19940;-80
2022/09/18 12:13:55;;;;;;;;;;;14.90;99.90;;;;;;5047756;28;19925;-80
2022/09/18 12:16:26;;;;;;;;;;;14.90;99.90;;;;;;5059892;28;20323;-80
2022/09/18 12:18:59;;;;;;;;;;;15.00;99.90;;;;;;5062645;28;20739;-80
2022/09/18 12:21:37;;;;;;;;;;;15.00;99.90;;;;;;5056349;28;19924;-80
2022/09/18 12:24:15;;;;;;;;;;;15.00;99.90;;;;;;5049234;28;19975;-80
2022/09/18 12:26:56;;;;;;;;;;;15.00;99.90;;;;;;5044424;28;20301;-80
2022/09/18 12:29:28;;;;;;;;;;;15.00;99.90;;;;;;5044088;28;19939;-81
2022/09/18 12:32:02;;;;;;;;;;;15.00;99.90;;;;;;5044090;28;19939;-80
2022/09/18 12:34:33;;;;;;;;;;;14.90;99.90;;;;;;5067736;28;19936;-81
2022/09/18 12:37:10;;;;;;;;;;;14.90;99.90;;;;;;5049366;28;19932;-80
2022/09/18 12:39:45;;;;;;;;;;;14.90;99.90;;;;;;5064531;28;19932;-78
2022/09/18 12:42:19;;;;;;;;;;;14.80;99.90;;;;;;5052507;28;20544;-77
2022/09/18 12:44:53;;;;;;;;;;;14.70;99.90;;;;;;5053442;28;19948;-77
2022/09/18 12:47:34;;;;;;;;;;;14.60;99.90;;;;;;5070644;28;20334;-78
2022/09/18 12:50:07;;;;;;;;;;;14.60;99.90;;;;;;5067612;28;19935;-76
2022/09/18 12:52:41;;;;;;;;;;;14.50;99.90;;;;;;5050558;28;19924;-77
2022/09/18 12:55:18;;;;;;;;;;;14.40;99.90;;;;;;5053716;28;19928;-76
2022/09/18 12:57:49;;;;;;;;;;;14.40;99.90;;;;;;5043751;28;19951;-77
2022/09/18 13:00:18;;;;;;;;;;;14.40;99.90;;;;;;5068373;28;20375;-77
2022/09/18 13:02:50;;;;;;;;;;;14.40;99.90;;;;;;5052319;28;19963;-77
2022/09/18 13:05:18;;;;;;;;;;;14.50;99.90;;;;;;5050525;28;20001;-77
2022/09/18 13:07:49;;;;;;;;;;;14.50;99.90;;;;;;5072400;28;19928;-76
2022/09/18 13:10:20;;;;;;;;;;;14.40;99.90;;;;;;5054621;28;19928;-76
2022/09/18 13:12:50;;;;;;;;;;;14.40;99.90;;;;;;5053864;28;19924;-76
2022/09/18 13:15:18;;;;;;;;;;;14.40;99.90;;;;;;5053538;28;20016;-76
2022/09/18 13:17:47;;;;;;;;;;;14.40;99.90;;;;;;5072602;28;19929;-76
2022/09/18 13:20:17;;;;;;;;;;;14.30;99.90;;;;;;5053405;28;19924;-76
2022/09/18 13:22:45;;;;;;;;;;;14.30;99.90;;;;;;5053388;28;20564;-76
2022/09/18 13:25:18;;;;;;;;;;;14.30;99.90;;;;;;5053164;28;19932;-76
2022/09/18 13:27:46;;;;;;;;;;;14.20;99.90;;;;;;5053262;28;19964;-76
2022/09/18 13:30:14;;;;;;;;;;;14.10;99.90;;;;;;5053406;28;19932;-76
2022/09/18 13:32:41;;;;;;;;;;;14.10;99.90;;;;;;5071258;28;19932;-76
2022/09/18 13:35:19;;;;;;;;;;;14.10;99.90;;;;;;5053631;28;19936;-75
2022/09/18 13:37:46;;;;;;;;;;;14.00;99.90;;;;;;5053130;28;19925;-76
2022/09/18 13:40:26;;;;;;;;;;;14.00;99.90;;;;;;5072036;28;20011;-76
2022/09/18 13:42:54;;;;;;;;;;;14.00;99.90;;;;;;5053788;28;20035;-76
2022/09/18 13:45:22;;;;;;;;;;;14.00;99.90;;;;;;5070230;28;19928;-76
2022/09/18 13:47:59;;;;;;;;;;;14.00;99.90;;;;;;5072394;28;19928;-77
2022/09/18 13:50:27;;;;;;;;;;;14.00;99.90;;;;;;5056013;28;19924;-77
2022/09/18 13:52:54;;;;;;;;;;;14.00;99.90;;;;;;5055073;28;20408;-77
2022/09/18 13:55:32;;;;;;;;;;;14.00;99.90;;;;;;5054079;28;20304;-76
2022/09/18 13:58:14;;;;;;;;;;;14.00;99.90;;;;;;5055721;28;20355;-78
2022/09/18 14:00:42;;;;;;;;;;;14.00;99.90;;;;;;5056436;28;19986;-76
2022/09/18 14:03:28;;;;;;;;;;;14.00;99.90;;;;;;5055545;28;20407;-77
2022/09/18 14:05:55;;;;;;;;;;;14.00;99.90;;;;;;5056203;28;19928;-77
2022/09/18 14:08:38;;;;;;;;;;;14.00;99.90;;;;;;5056649;28;19929;-77
2022/09/18 14:11:08;;;;;;;;;;;14.10;99.90;;;;;;5061388;28;19925;-78
2022/09/18 14:13:42;;;;;;;;;;;14.10;99.90;;;;;;5060220;28;19929;-78
2022/09/18 14:16:27;;;;;;;;;;;14.00;99.90;;;;;;5072285;28;19929;-77
2022/09/18 14:19:01;;;;;;;;;;;14.00;99.90;;;;;;5059344;28;20384;-78
2022/09/18 14:21:30;;;;;;;;;;;14.00;99.90;;;;;;5058185;28;20418;-77
2022/09/18 14:24:12;;;;;;;;;;;14.00;99.90;;;;;;5073261;28;20039;-78
2022/09/18 14:26:54;;;;;;;;;;;14.00;99.90;;;;;;5074596;28;20008;-77
2022/09/18 14:29:21;;;;;;;;;;;13.90;99.90;;;;;;5069369;28;19946;-77
2022/09/18 14:31:48;;;;;;;;;;;13.90;99.90;;;;;;5073608;28;19936;-78
2022/09/18 14:34:17;;;;;;;;;;;13.80;99.90;;;;;;5060766;28;20584;-76
2022/09/18 14:36:44;;;;;;;;;;;13.80;99.90;;;;;;5055506;28;19974;-77
2022/09/18 14:39:22;;;;;;;;;;;13.80;99.90;;;;;;5055231;28;19924;-77
2022/09/18 14:41:49;;;;;;;;;;;13.70;99.90;;;;;;5054186;28;20312;-77
2022/09/18 14:44:16;;;;;;;;;;;13.60;99.90;;;;;;5054019;28;19974;-77
2022/09/18 14:46:52;;;;;;;;;;;14.80;99.90;;;;;;5054077;28;19952;-77
2022/09/18 14:49:29;;;;;;;;;;;13.60;99.90;;;;;;5053483;28;19929;-76
2022/09/18 14:51:56;;;;;;;;;;;13.60;99.90;;;;;;5053292;28;20029;-76
2022/09/18 14:54:24;;;;;;;;;;;13.60;99.90;;;;;;5053519;28;19929;-77